Pickford, MI (49774)

7:11 AM EDT on July 06, 2015 (GMT -0400)
Rocky Point | | Change Station
CLOSE
Current Station
Personal Weather Station
Location: Pickford, MI
Elevation: 574 ft
Nearby Weather Stations

Elev 574 ft 46.18 °N, 84.12 °W | Updated 53 seconds ago

Partly Cloudy
Partly Cloudy
64.4 °F
Feels Like 64.4 °F
N
0.0
Wind Variable Wind from South
Gusts 2.0 mph

Today
High -- | Low -- °F
--% Chance of Precip.
Yesterday
High -- | Low -- °F
Precip. -- in
5:52 AM 9:30 PM
Waning Gibbous, 76% visible
Pressure 29.97 in
Visibility 6.0 miles
Clouds Overcast 4100 ft
Dew Point 64 °F
Humidity 97%
Rainfall 0.00 in
Snow Depth Not available.
UV 0 out of 12
Pollen 4.10 out of 12
Air Quality Not available.
Flu Activity Not available.
METAR KCIU 061055Z AUTO 16005KT 6SM OVC041 17/16 A2997 RMK AO1

More Conditions Fewer Conditions

Pressure 29.97 in
Visibility 6.0 miles
Clouds Overcast 4100 ft
Dew Point 64 °F
Humidity 97%
Rainfall 0.00 in
Snow Depth Not available.
UV 0 out of 12
Pollen 4.10 out of 12
Air Quality Not available.
Flu Activity Not available.
METAR KCIU 061055Z AUTO 16005KT 6SM OVC041 17/16 A2997 RMK AO1

More Conditions Fewer Conditions

Nowcast | as of 7:00 am EDT on July 6, 2015

At 8 am...partly cloudy. Temperature 65. South winds 8 mph. At 10 am...partly cloudy. Temperature 71. South winds 12 mph. At 12 PM...partly cloudy. Temperature 78. South winds 14 mph. At 2 PM...partly cloudy. Temperature 81. South winds 15 mph.

×

10-Day Weather Forecast

×

Almanac

Astronomy

Jul. 06, 2015 Rise Set
Actual Time
Civil Twilight
Nautical Twilight
Astronomical Twilight
Moon
Length of Visible Light
Length of Day
Tomorrow will be .
, % of the Moon is Illuminated

Today's Extremes

State Highs State Lows

Community

WunderPhotos

Upload Photos

1,835,534 photos uploaded!

WunderBlogs® & News

Nearby

Air Quality

  Air Quality AQ Index Pollutant
Not available.

Snow Depth

Station Depth Elevation

Earthquake Activity

City Distance Mag. Time & Date
Minimum magnitude displayed is 2.5.

Coastal Water Temperatures

Place Temperature

Stations

Nearby Weather Stations

Station Location Temp. Windchill Dew Point Humidity Wind Precip. Elev Updated Type